Flight Track Log - Related Links

Times and Time Zones

All times are in EDT time to prevent confusion due to time zone crossing. See the JST963 flight status page for this flight to view local times or setup timezone preferences in your user account.

Time Position Orientation Groundspeed Altitude Reporting Facility
EDT Latitude Longitude Course Direction KTS MPH feet Rate Location/Type
Tue 04:33:51 PM -16.9010 145.7697 292° West 153 176 2,200  Level Aus ATC (RADAR)
Tue 04:33:52 PM -16.9000 145.7670 55° Northeast 135 155 1,900 1,600 Descending FlightAware ADS-B
Tue 04:34:06 PM -16.8950 145.7785 55° Northeast 151 174 2,600 2,160 Climbing Aus ATC (RADAR)
Tue 04:34:17 PM -16.8900 145.7800 51° Northeast 154 177 2,800 1,463 Climbing FlightAware ADS-B
Tue 04:34:47 PM -16.8690 145.7910 27° Northeast 171 197 3,600 1,556 Climbing FlightAware ADS-B
Tue 04:35:11 PM -16.8572 145.8113 27° Northeast 177 204 4,200 1,200 Climbing Aus ATC (RADAR)
Tue 04:35:12 PM -16.8580 145.8090 27° Northeast 192 221 4,100 923 Descending FlightAware ADS-B
Tue 04:35:37 PM -16.8610 145.8350 97° East 232 267 4,600 1,600 Climbing FlightAware ADS-B
Tue 04:35:57 PM -16.8770 145.8520 135° Southeast 253 291 5,300 2,400 Climbing FlightAware ADS-B
Tue 04:36:07 PM -16.8890 145.8540 171° South 273 314 5,800 2,700 Climbing FlightAware ADS-B
Tue 04:36:37 PM -16.9280 145.8420 196° South 297 342 7,100 3,055 Climbing FlightAware ADS-B
Tue 04:37:02 PM -16.9590 145.8280 203° Southwest 288 331 8,600 3,217 Climbing FlightAware ADS-B
Tue 04:37:46 PM -17.0211 145.8007 203° Southwest 296 341 10,800 2,800 Climbing Aus ATC (RADAR)
Tue 04:37:47 PM -17.0170 145.8030 203° Southwest 311 358 10,700 1,171 Descending FlightAware ADS-B
Tue 04:38:27 PM -17.0760 145.7790 201° Southwest 345 397 11,600 1,969 Climbing FlightAware ADS-B
Tue 04:38:51 PM -17.1185 145.7613 201° Southwest 347 399 12,800 2,550 Climbing Aus ATC (RADAR)
Tue 04:39:07 PM -17.1390 145.7530 201° Southwest 362 417 13,300 1,967 Climbing FlightAware ADS-B
Tue 04:39:52 PM -17.2080 145.7250 201° Southwest 379 436 14,800 2,400 Climbing FlightAware ADS-B
Tue 04:40:37 PM -17.2850 145.6940 201° Southwest 367 422 16,900 2,813 Climbing FlightAware ADS-B
Tue 04:40:56 PM -17.3199 145.6796 201° Southwest 369 425 17,800 2,057 Climbing Aus ATC (RADAR)
Tue 04:41:12 PM -17.3410 145.6710 201° Southwest 381 438 18,100 2,020 Climbing FlightAware ADS-B
Tue 04:41:52 PM -17.4010 145.6470 201° Southwest 19,300 2,188 Climbing FlightAware ADS-B
Tue 04:42:37 PM -17.4850 145.6130 201° Southwest 380 437 21,200 2,108 Climbing FlightAware ADS-B
Tue 04:43:06 PM -17.5344 145.5924 201° Southwest 378 435 21,900 1,350 Climbing Aus ATC (RADAR)
Tue 04:43:17 PM -17.5500 145.5860 201° Southwest 391 450 22,100 1,475 Climbing FlightAware ADS-B
Tue 04:44:07 PM -17.6310 145.5530 201° Southwest 385 443 23,400 1,553 Climbing FlightAware ADS-B
Tue 04:44:42 PM -17.6940 145.5270 201° Southwest 399 459 24,300 1,575 Climbing FlightAware ADS-B
Tue 04:45:27 PM -17.7740 145.4940 201° Southwest 403 464 25,500 1,482 Climbing FlightAware ADS-B
Tue 04:46:07 PM -17.8310 145.4710 201° Southwest 404 465 26,400 1,295 Climbing FlightAware ADS-B
Tue 04:46:55 PM -17.9327 145.4289 201° Southwest 411 473 27,400 1,200 Climbing Aus ATC (RADAR)
Tue 04:47:22 PM -17.9770 145.4110 201° Southwest 423 487 27,900 1,075 Climbing FlightAware ADS-B
Tue 04:48:02 PM -18.0490 145.3820 201° Southwest 429 494 28,600 1,125 Climbing FlightAware ADS-B
Tue 04:48:42 PM -18.1210 145.3520 202° Southwest 436 502 29,400 1,125 Climbing FlightAware ADS-B
Tue 04:49:22 PM -18.1950 145.3220 201° Southwest 441 507 30,100 1,200 Climbing FlightAware ADS-B
Tue 04:50:07 PM -18.2860 145.2840 202° Southwest 441 507 31,100 1,726 Climbing FlightAware ADS-B
Tue 04:50:35 PM -18.3449 145.2595 202° Southwest 433 498 32,200 1,867 Climbing Aus ATC (RADAR)
Tue 04:50:52 PM -18.3720 145.2490 202° Southwest 430 495 32,500 1,263 Climbing FlightAware ADS-B
Tue 04:51:32 PM -18.4450 145.2180 202° Southwest 428 493 33,400 1,644 Climbing FlightAware ADS-B
Tue 04:52:05 PM -18.5103 145.1908 202° Southwest 418 481 34,500 1,500 Climbing Aus ATC (RADAR)
Tue 04:52:12 PM -18.5190 145.1880 202° Southwest 419 482 34,400 808 Descending FlightAware ADS-B
Tue 04:52:57 PM -18.5990 145.1550 201° Southwest 418 481 35,200 1,059 Climbing FlightAware ADS-B
Tue 04:53:37 PM -18.6700 145.1250 202° Southwest 415 478 35,900 779 Climbing FlightAware ADS-B
Tue 04:54:14 PM -18.7434 145.0940 202° Southwest 410 472 36,200 150 Climbing Aus ATC (RADAR)
Tue 04:54:17 PM -18.7440 145.0940 202° Southwest 411 473 36,000 -250 Descending FlightAware ADS-B
Tue 04:55:02 PM -18.8230 145.0620 201° Southwest 417 480 36,000 97 Level FlightAware ADS-B
Tue 04:55:19 PM -18.8598 145.0458 201° Southwest 415 478 36,100  Climbing Aus ATC (RADAR)
Tue 04:55:42 PM -18.8940 145.0320 201° Southwest 417 480 36,000  Descending FlightAware ADS-B
Tue 04:56:24 PM -18.9763 144.9971 201° Southwest 414 476 36,100  Climbing Aus ATC (RADAR)
Tue 04:56:27 PM -18.9770 144.9980 201° Southwest 417 480 36,000 -140 Descending FlightAware ADS-B
Tue 04:57:07 PM -19.0480 144.9680 202° Southwest 417 480 36,000 97 Level FlightAware ADS-B
Tue 04:57:29 PM -19.0930 144.9487 202° Southwest 414 476 36,100  Climbing Aus ATC (RADAR)
Tue 04:57:47 PM -19.1200 144.9380 202° Southwest 416 479 36,000 -95 Descending FlightAware ADS-B
Tue 04:58:32 PM -19.1970 144.9060 201° Southwest 416 479 36,000  Level FlightAware ADS-B
Tue 04:59:12 PM -19.2710 144.8750 202° Southwest 415 478 36,000 90 Level FlightAware ADS-B
Tue 04:59:39 PM -19.3260 144.8516 202° Southwest 411 473 36,100  Climbing Aus ATC (RADAR)
Tue 04:59:57 PM -19.3550 144.8400 202° Southwest 414 476 36,000 -113 Descending FlightAware ADS-B
Tue 05:00:32 PM -19.4180 144.8130 202° Southwest 412 474 36,000 78 Level FlightAware ADS-B
Tue 05:01:14 PM -19.4949 144.7811 202° Southwest 409 471 36,100  Climbing Aus ATC (RADAR)
Tue 05:01:17 PM -19.4970 144.7800 202° Southwest 411 473 36,000 -125 Descending FlightAware ADS-B
Tue 05:02:02 PM -19.5780 144.7460 202° Southwest 412 474 36,000 79 Level FlightAware ADS-B
Tue 05:02:33 PM -19.6361 144.7216 202° Southwest 408 470 36,100  Climbing Aus ATC (RADAR)
Tue 05:02:42 PM -19.6500 144.7160 202° Southwest 412 474 36,000 -122 Descending FlightAware ADS-B
Tue 05:03:22 PM -19.7180 144.6880 202° Southwest 411 473 36,000 143 Level FlightAware ADS-B
Tue 05:03:24 PM -19.7248 144.6843 202° Southwest 409 471 36,100 167 Climbing Aus ATC (RADAR)
Tue 05:03:58 PM -19.7867 144.6581 202° Southwest 410 472 36,100 -140 Level Aus ATC (RADAR)
Tue 05:04:07 PM -19.7970 144.6540 202° Southwest 409 471 36,000  Descending FlightAware ADS-B
Tue 05:04:38 PM -19.8574 144.6287 202° Southwest 410 472 36,100  Climbing Aus ATC (RADAR)
Tue 05:04:47 PM -19.8670 144.6250 202° Southwest 410 472 36,000  Descending FlightAware ADS-B
Tue 05:05:03 PM -19.9012 144.6103 202° Southwest 404 465 36,100  Climbing Aus ATC (RADAR)
Tue 05:05:32 PM -19.9500 144.5900 202° Southwest 408 470 36,000 -87 Descending FlightAware ADS-B
Tue 05:06:12 PM -20.0190 144.5610 202° Southwest 409 471 36,000 85 Level FlightAware ADS-B
Tue 05:06:43 PM -20.0768 144.5359 202° Southwest 405 466 36,100  Climbing Aus ATC (RADAR)
Tue 05:06:52 PM -20.0920 144.5300 202° Southwest 408 470 36,000  Descending FlightAware ADS-B
Tue 05:07:08 PM -20.1218 144.5178 202° Southwest 408 470 36,100  Climbing Aus ATC (RADAR)
Tue 05:07:37 PM -20.1680 144.4980 202° Southwest 410 472 36,000 -87 Descending FlightAware ADS-B
Tue 05:08:17 PM -20.2390 144.4680 202° Southwest 410 472 36,000 79 Level FlightAware ADS-B
Tue 05:08:53 PM -20.3067 144.4393 202° Southwest 406 467 36,100  Climbing Aus ATC (RADAR)
Tue 05:09:02 PM -20.3160 144.4350 202° Southwest 407 468 36,000  Descending FlightAware ADS-B
Tue 05:09:28 PM -20.3679 144.4132 202° Southwest 402 463 36,100  Climbing Aus ATC (RADAR)
Tue 05:09:57 PM -20.4080 144.3970 202° Southwest 406 467 36,000 -87 Descending FlightAware ADS-B
Tue 05:10:37 PM -20.4680 144.3720 201° Southwest 406 467 36,000  Level FlightAware ADS-B
Tue 05:11:17 PM -20.5280 144.3480 201° Southwest 406 467 36,000  Level FlightAware ADS-B
Tue 05:11:57 PM -20.5870 144.3230 201° Southwest 406 467 36,000 146 Level FlightAware ADS-B
Tue 05:11:58 PM -20.6271 144.3029 201° Southwest 395 455 36,100 286 Climbing Aus ATC (RADAR)
Tue 05:12:18 PM -20.6612 144.2880 201° Southwest 397 457 36,100 -154 Level Aus ATC (RADAR)
Tue 05:12:37 PM -20.6470 144.2990 201° Southwest 406 467 36,000  Descending FlightAware ADS-B
Tue 05:12:52 PM -20.7212 144.2632 201° Southwest 393 452 36,100  Climbing Aus ATC (RADAR)
Tue 05:13:27 PM -20.7210 144.2680 201° Southwest 406 467 36,000 -80 Descending FlightAware ADS-B
Tue 05:14:07 PM -20.7810 144.2440 201° Southwest 406 467 36,000 80 Level FlightAware ADS-B
Tue 05:14:42 PM -20.9169 144.2005 201° Southwest 404 465 36,100  Climbing Aus ATC (RADAR)
Tue 05:14:47 PM -20.8410 144.2190 201° Southwest 406 467 36,000  Descending FlightAware ADS-B
Tue 05:15:17 PM -20.9836 144.1873 201° Southwest 414 476 36,100  Climbing Aus ATC (RADAR)
Tue 05:15:27 PM -20.9000 144.1950 201° Southwest 406 467 36,000 -120 Descending FlightAware ADS-B
Tue 05:16:07 PM -20.9600 144.1700 201° Southwest 406 467 36,000 75 Level FlightAware ADS-B
Tue 05:16:47 PM -21.1502 144.1511 201° Southwest 407 468 36,100  Climbing Aus ATC (RADAR)
Tue 05:16:57 PM -21.0340 144.1400 201° Southwest 406 467 36,000  Descending FlightAware ADS-B
Tue 05:17:12 PM -21.1954 144.1395 201° Southwest 402 463 36,100  Climbing Aus ATC (RADAR)
Tue 05:17:37 PM -21.0940 144.1150 201° Southwest 406 467 36,000 -92 Descending FlightAware ADS-B
Tue 05:18:17 PM -21.1540 144.0910 200° South 406 467 36,000 109 Level FlightAware ADS-B
Tue 05:18:32 PM -21.3432 144.1067 200° South 404 465 36,100  Climbing Aus ATC (RADAR)
Tue 05:18:57 PM -21.2130 144.0660 200° South 406 467 36,000  Descending FlightAware ADS-B
Tue 05:19:42 PM -21.4728 144.0775 200° South 407 468 36,100 75 Climbing Aus ATC (RADAR)
Tue 05:20:17 PM -21.5380 144.0634 191° South 410 472 36,100  Level Aus ATC (RADAR)
Tue 05:22:16 PM -21.7591 144.0135 192° South 404 465 36,100  Level Aus ATC (RADAR)
Tue 05:22:31 PM -21.7870 144.0074 192° South 406 467 36,100  Level Aus ATC (RADAR)
Tue 05:23:06 PM -21.8516 143.9936 191° South 405 466 36,100 185 Level Aus ATC (RADAR)
Tue 05:23:36 PM -21.9057 143.9802 193° South 403 464 36,300 120 Climbing Aus ATC (RADAR)
Tue 05:24:46 PM -22.0351 143.9525 191° South 404 465 36,300  Level Aus ATC (RADAR)
Tue 05:25:26 PM -22.1081 143.9355 192° South 404 465 36,300  Level Aus ATC (RADAR)
Tue 05:26:46 PM -22.2541 143.9017 192° South 402 463 36,300  Level Aus ATC (RADAR)
Tue 05:27:11 PM -22.3009 143.8920 191° South 406 467 36,300  Level Aus ATC (RADAR)
Tue 05:27:46 PM -22.3660 143.8785 191° South 406 467 36,300  Level Aus ATC (RADAR)
Tue 05:28:36 PM -22.4579 143.8571 192° South 408 470 36,300  Level Aus ATC (RADAR)
Tue 05:29:11 PM -22.5222 143.8409 193° South 409 471 36,300  Level Aus ATC (RADAR)
Tue 05:29:46 PM -22.5866 143.8263 192° South 406 467 36,300  Level Aus ATC (RADAR)
Tue 05:30:11 PM -22.6301 143.8131 196° South 400 460 36,300  Level Aus ATC (RADAR)
Tue 05:31:06 PM -22.7383 143.8038 184° South 435 501 36,300 -14 Level Aus ATC (RADAR)
Tue 05:35:40 PM -23.2140 143.6918 197° South 36,000 -14 Descending Aus ATC (Calculated)
Tue 05:38:00 PM -23.4657 143.6322 192° South  Level FlightAware Approximate
Tue 05:39:00 PM -23.5736 143.6066 192° South  Level FlightAware Approximate
Tue 05:40:00 PM -23.6814 143.5809 192° South  Level FlightAware Approximate
Tue 05:40:40 PM -23.8024 143.5521 200° South 36,000  Level Aus ATC (Calculated)
Tue 05:42:00 PM -23.9463 143.5178 192° South  Level FlightAware Approximate
Tue 05:43:00 PM -24.0541 143.4920 192° South  Level FlightAware Approximate
Tue 05:44:00 PM -24.1620 143.4661 192° South  Level FlightAware Approximate
Tue 05:45:00 PM -24.2698 143.4402 192° South  Level FlightAware Approximate
Tue 05:45:09 PM -24.2544 143.3397 197° South 36,000  Level Aus ATC (Calculated)
Tue 05:47:00 PM -24.2665 143.5633 93° East  Level FlightAware Approximate
Tue 05:48:00 PM -24.2600 143.4424 273° West  Level FlightAware Approximate
Tue 05:49:00 PM -24.2663 143.5633 93° East  Level FlightAware Approximate
Tue 05:50:00 PM -24.2600 143.4424 273° West  Level FlightAware Approximate
Tue 05:50:04 PM -24.7977 143.0821 167° South 36,000  Level Aus ATC (Calculated)
Tue 05:51:33 PM -24.9612 143.0041 64° Northeast 36,000  Level Aus ATC (Calculated)
Tue 05:51:52 PM -24.9140 143.1110 205° Southwest 389 448 36,000  Level FlightAware ADS-B
Tue 05:52:00 PM -24.9981 143.0010 205° Southwest  Level Estimated
Tue 05:52:37 PM -24.9880 143.0730 205° Southwest 389 448 36,000  Level FlightAware ADS-B
Tue 05:53:12 PM -25.0550 143.0390 205° Southwest 388 447 36,000  Level FlightAware ADS-B
Tue 05:54:07 PM -25.1320 142.9990 205° Southwest 388 447 36,000  Level FlightAware ADS-B
Tue 05:54:47 PM -25.1880 142.9710 204° Southwest 388 447 36,000  Level FlightAware ADS-B
Tue 05:55:03 PM -25.3443 142.8205 53° Northeast 36,000  Level Aus ATC (Calculated)
Tue 05:55:27 PM -25.2720 142.9280 205° Southwest 389 448 36,000  Level FlightAware ADS-B
Tue 05:56:12 PM -25.3440 142.8910 205° Southwest 389 448 36,000  Level FlightAware ADS-B
Tue 05:56:42 PM -25.3960 142.8640 205° Southwest 389 448 36,000  Level FlightAware ADS-B
Tue 05:57:32 PM -25.4720 142.8250 205° Southwest 390 449 36,000  Level FlightAware ADS-B
Tue 05:58:12 PM -25.5270 142.7960 205° Southwest 390 449 36,000  Level FlightAware ADS-B
Tue 05:58:52 PM -25.5830 142.7680 204° Southwest 390 449 36,000  Level FlightAware ADS-B
Tue 05:59:42 PM -25.6530 142.7320 205° Southwest 390 449 36,000  Level FlightAware ADS-B
Tue 06:00:03 PM -25.8610 142.5708 38° Northeast 36,000  Level Aus ATC (Calculated)
Tue 06:00:22 PM -25.7080 142.7030 205° Southwest 390 449 36,000  Level FlightAware ADS-B
Tue 06:01:02 PM -25.7640 142.6740 205° Southwest 390 449 36,000  Level FlightAware ADS-B
Tue 06:01:42 PM -25.8190 142.6450 205° Southwest 390 449 36,000  Level FlightAware ADS-B
Tue 06:02:22 PM -25.8750 142.6170 204° Southwest 390 449 36,000  Level FlightAware ADS-B
Tue 06:03:02 PM -26.0090 142.5470 205° Southwest 36,000  Level FlightAware ADS-B
Tue 06:03:52 PM -26.0960 142.5020 205° Southwest 388 447 36,000  Level FlightAware ADS-B
Tue 06:04:32 PM -26.1550 142.4710 205° Southwest 388 447 36,000  Level FlightAware ADS-B
Tue 06:05:02 PM -26.3934 142.3110 33° Northeast 36,000  Level Aus ATC (Calculated)
Tue 06:05:12 PM -26.2150 142.4400 205° Southwest 388 447 36,000  Level FlightAware ADS-B
Tue 06:05:57 PM -26.2960 142.3970 205° Southwest 387 445 36,000  Level FlightAware ADS-B
Tue 06:06:09 PM -26.5204 142.2486 33° Northeast 36,000  Level Aus ATC (Calculated)
Tue 06:06:42 PM -26.3720 142.3570 205° Southwest 389 448 36,000  Level FlightAware ADS-B
Tue 06:07:17 PM -26.4280 142.3280 205° Southwest 389 448 36,000  Level FlightAware ADS-B
Tue 06:07:27 PM -26.6315 142.1939 34° Northeast 36,000  Level Aus ATC (Calculated)
Tue 06:08:02 PM -26.5070 142.2870 205° Southwest 390 449 36,000  Level FlightAware ADS-B
Tue 06:08:47 PM -26.5700 142.2540 205° Southwest 390 449 36,000  Level FlightAware ADS-B
Tue 06:09:27 PM -26.6440 142.2140 206° Southwest 390 449 36,000  Level FlightAware ADS-B
Tue 06:10:02 PM -26.8744 142.0740 30° Northeast 36,000  Level Aus ATC (Calculated)
Tue 06:10:07 PM -26.7060 142.1820 205° Southwest 390 449 36,000  Level FlightAware ADS-B
Tue 06:10:52 PM -26.7850 142.1400 205° Southwest 390 449 36,000  Level FlightAware ADS-B
Tue 06:11:32 PM -26.8500 142.1060 205° Southwest 389 448 36,000  Level FlightAware ADS-B
Tue 06:12:12 PM -26.9070 142.0760 205° Southwest 389 448 36,000  Level FlightAware ADS-B
Tue 06:12:52 PM -26.9780 142.0380 205° Southwest 390 449 36,000  Level FlightAware ADS-B
Tue 06:13:47 PM -27.0580 141.9960 205° Southwest 389 448 36,000  Level FlightAware ADS-B
Tue 06:14:32 PM -27.1410 141.9510 206° Southwest 388 447 36,000  Level FlightAware ADS-B
Tue 06:15:01 PM -27.4083 141.8083 26° Northeast 12,300  Descending Aus ATC (Calculated)
Tue 06:15:17 PM -27.2060 141.9170 206° Southwest 388 447 36,000 25,393 Climbing FlightAware ADS-B
Tue 06:15:57 PM -27.2610 141.8880 205° Southwest 388 447 36,000  Level FlightAware ADS-B
Tue 06:16:37 PM -27.3160 141.8590 205° Southwest 388 447 36,000  Level FlightAware ADS-B
Tue 06:17:16 PM -27.6749 141.6953 21° North 12,300  Descending Aus ATC (Calculated)
Tue 06:17:27 PM -27.3850 141.8230 205° Southwest 388 447 36,000 27,882 Climbing FlightAware ADS-B
Tue 06:18:07 PM -27.4950 141.7720 205° Southwest 392 451 36,000  Level FlightAware ADS-B
Tue 06:18:42 PM -27.5510 141.7490 200° South 392 451 36,000  Level FlightAware ADS-B
Tue 06:19:22 PM -27.6190 141.7190 201° Southwest 392 451 36,000  Level FlightAware ADS-B
Tue 06:20:12 PM -27.7090 141.6810 200° South 391 450 36,000  Level FlightAware ADS-B
Tue 06:20:52 PM -27.7760 141.6530 200° South 390 449 36,000  Level FlightAware ADS-B
Tue 06:21:01 PM -28.0480 141.5363 21° North 12,300  Descending Aus ATC (Calculated)
Tue 06:21:37 PM -27.8510 141.6210 200° South 389 448 36,000 20,028 Climbing FlightAware ADS-B
Tue 06:22:12 PM -27.9060 141.5970 201° Southwest 389 448 36,000  Level FlightAware ADS-B
Tue 06:22:55 PM -28.2610 141.4449 21° North 12,300  Descending Aus ATC (Calculated)
Tue 06:22:57 PM -27.9860 141.5630 201° Southwest 389 448 36,000 30,255 Climbing FlightAware ADS-B
Tue 06:23:42 PM -28.0590 141.5320 201° Southwest 388 447 36,000  Level FlightAware ADS-B
Tue 06:23:45 PM -28.3676 141.3991 21° North 12,300  Descending Aus ATC (Calculated)
Tue 06:24:22 PM -28.1310 141.5010 201° Southwest 388 447 36,000 18,468 Climbing FlightAware ADS-B
Tue 06:25:02 PM -28.1970 141.4730 200° South 387 445 36,000  Level FlightAware ADS-B
Tue 06:25:47 PM -28.2740 141.4400 201° Southwest 387 445 36,000  Level FlightAware ADS-B
Tue 06:26:27 PM -28.3420 141.4110 201° Southwest 388 447 36,000  Level FlightAware ADS-B
Tue 06:27:07 PM -28.4060 141.3830 201° Southwest 388 447 36,000  Level FlightAware ADS-B
Tue 06:27:50 PM -28.7935 141.2149 21° North 12,300  Descending Aus ATC (Calculated)
Tue 06:27:50 PM -28.7935 141.2149 21° North 12,300 711,000 Level Aus ATC (Calculated)
Tue 06:27:52 PM -28.4820 141.3500 201° Southwest 388 447 36,000 30,255 Climbing FlightAware ADS-B
Tue 06:28:37 PM -28.5570 141.3180 201° Southwest 389 448 36,000  Level FlightAware ADS-B
Tue 06:29:17 PM -28.6290 141.2870 201° Southwest 389 448 36,000  Level FlightAware ADS-B
Tue 06:30:02 PM -28.7020 141.2550 201° Southwest 390 449 36,000  Level FlightAware ADS-B
Tue 06:30:42 PM -28.7690 141.2260 201° Southwest 392 451 36,000  Level FlightAware ADS-B
Tue 06:31:27 PM -28.8460 141.1920 201° Southwest 392 451 36,000  Level FlightAware ADS-B
Tue 06:32:07 PM -28.9150 141.1620 201° Southwest 393 452 36,000  Level FlightAware ADS-B
Tue 06:32:47 PM -28.9830 141.1330 200° South 393 452 36,000  Level FlightAware ADS-B
Tue 06:32:50 PM -29.3254 140.9825 21° North 12,300  Descending Aus ATC (Calculated)
Tue 06:33:32 PM -29.0580 141.1000 201° Southwest 392 451 36,000 14,660 Climbing FlightAware ADS-B
Tue 06:34:27 PM -29.1340 141.0670 201° Southwest 391 450 36,000  Level FlightAware ADS-B
Tue 06:35:07 PM -29.2100 141.0330 201° Southwest 391 450 36,000  Level FlightAware ADS-B
Tue 06:35:52 PM -29.2900 140.9990 200° South 389 448 36,000  Level FlightAware ADS-B
Tue 06:36:32 PM -29.3590 140.9680 201° Southwest 390 449 36,000  Level FlightAware ADS-B
Tue 06:37:22 PM -29.4420 140.9320 201° Southwest 390 449 36,000  Level FlightAware ADS-B
Tue 06:37:49 PM -29.8569 140.7477 21° North 12,300  Descending Aus ATC (Calculated)
Tue 06:38:12 PM -29.5140 140.9020 201° Southwest 390 449 36,000 24,517 Climbing FlightAware ADS-B
Tue 06:38:30 PM -29.9100 140.7241 21° North 12,300  Descending Aus ATC (Calculated)
Tue 06:38:47 PM -29.5860 140.8680 201° Southwest 393 452 36,000 18,468 Climbing FlightAware ADS-B
Tue 06:39:44 PM -30.0163 140.6768 21° North 12,300  Descending Aus ATC (Calculated)
Tue 06:39:47 PM -29.6880 140.8230 201° Southwest 392 451 36,000 33,070 Climbing FlightAware ADS-B
Tue 06:40:27 PM -29.7460 140.7970 201° Southwest 392 451 36,000  Level FlightAware ADS-B
Tue 06:41:07 PM -29.8040 140.7720 201° Southwest 392 451 36,000  Level FlightAware ADS-B
Tue 06:41:57 PM -29.9120 140.7240 201° Southwest 394 453 36,000  Level FlightAware ADS-B
Tue 06:42:49 PM -30.3879 140.5105 21° North 12,300  Descending Aus ATC (Calculated)
Tue 06:42:52 PM -30.0000 140.6850 201° Southwest 394 453 36,000 33,070 Climbing FlightAware ADS-B
Tue 06:43:32 PM -30.0730 140.6520 201° Southwest 396 456 36,000  Level FlightAware ADS-B
Tue 06:43:46 PM -30.4941 140.4627 21° North 12,300  Descending Aus ATC (Calculated)
Tue 06:44:17 PM -30.1460 140.6200 201° Southwest 397 457 36,000 20,028 Climbing FlightAware ADS-B
Tue 06:44:57 PM -30.2040 140.5940 201° Southwest 397 457 36,000  Level FlightAware ADS-B
Tue 06:45:05 PM -30.6002 140.4148 21° North 12,300  Descending Aus ATC (Calculated)
Tue 06:45:37 PM -30.2620 140.5680 201° Southwest 397 457 36,000 19,750 Climbing FlightAware ADS-B
Tue 06:46:17 PM -30.3210 140.5420 201° Southwest 397 457 36,000  Level FlightAware ADS-B
Tue 06:46:25 PM -30.7593 140.3428 21° North 12,300  Descending Aus ATC (Calculated)
Tue 06:46:57 PM -30.3790 140.5160 201° Southwest 397 457 36,000 19,750 Climbing FlightAware ADS-B
Tue 06:47:13 PM -30.8124 140.3188 21° North 12,300  Descending Aus ATC (Calculated)
Tue 06:47:37 PM -30.4370 140.4900 201° Southwest 397 457 36,000 19,216 Climbing FlightAware ADS-B
Tue 06:48:27 PM -30.5100 140.4580 201° Southwest 397 457 36,000  Level FlightAware ADS-B
Tue 06:49:07 PM -30.5690 140.4320 201° Southwest 397 457 36,000  Level FlightAware ADS-B
Tue 06:49:42 PM -30.7090 140.3660 202° Southwest 400 460 36,000  Level FlightAware ADS-B
Tue 06:50:32 PM -30.7820 140.3340 201° Southwest 400 460 36,000  Level FlightAware ADS-B
Tue 06:51:12 PM -30.8410 140.3070 201° Southwest 400 460 36,000  Level FlightAware ADS-B
Tue 06:51:52 PM -30.9000 140.2810 201° Southwest 400 460 36,000  Level FlightAware ADS-B
Tue 06:52:13 PM -31.3425 140.0768 22° Northeast 12,300  Descending Aus ATC (Calculated)
Tue 06:52:32 PM -30.9590 140.2550 201° Southwest 400 460 36,000 20,609 Climbing FlightAware ADS-B
Tue 06:53:22 PM -31.0320 140.2220 201° Southwest 400 460 36,000  Level FlightAware ADS-B
Tue 06:54:02 PM -31.0910 140.1960 201° Southwest 400 460 36,000 254 Level FlightAware ADS-B
Tue 06:54:33 PM -31.2158 140.1342 201° Southwest 397 457 36,300  Climbing Aus ATC (RADAR)
Tue 06:54:42 PM -31.1490 140.1690 201° Southwest 400 460 36,000  Descending FlightAware ADS-B
Tue 06:55:08 PM -31.2758 140.1064 201° Southwest 397 457 36,300  Climbing Aus ATC (RADAR)
Tue 06:55:22 PM -31.2080 140.1430 201° Southwest 400 460 36,000  Descending FlightAware ADS-B
Tue 06:55:43 PM -31.3356 140.0780 201° Southwest 397 457 36,300  Climbing Aus ATC (RADAR)
Tue 06:56:02 PM -31.2670 140.1170 201° Southwest 400 460 36,000  Descending FlightAware ADS-B
Tue 06:56:23 PM -31.4045 140.0474 201° Southwest 397 457 36,300  Climbing Aus ATC (RADAR)
Tue 06:56:52 PM -31.3400 140.0840 201° Southwest 400 460 36,000  Descending FlightAware ADS-B
Tue 06:57:08 PM -31.4811 140.0084 201° Southwest 400 460 36,300  Climbing Aus ATC (RADAR)
Tue 06:57:32 PM -31.3990 140.0570 201° Southwest 400 460 36,000 -281 Descending FlightAware ADS-B
Tue 06:58:12 PM -31.4580 140.0310 201° Southwest 400 460 36,000  Level FlightAware ADS-B
Tue 06:58:52 PM -31.5170 140.0040 201° Southwest 400 460 36,000 200 Level FlightAware ADS-B
Tue 06:59:42 PM -31.7493 139.8863 201° Southwest 403 464 36,300 188 Climbing Aus ATC (RADAR)
Tue 07:00:28 PM -31.8280 139.8538 199° South 401 461 36,300  Level Aus ATC (RADAR)
Tue 07:00:52 PM -31.8712 139.8342 201° Southwest 401 461 36,300  Level Aus ATC (RADAR)
Tue 07:01:27 PM -31.9311 139.8034 204° Southwest 404 465 36,300  Level Aus ATC (RADAR)
Tue 07:02:12 PM -32.0093 139.7697 200° South 402 463 36,300 -157 Level Aus ATC (RADAR)
Tue 07:03:22 PM -32.1270 139.7140 200° South 401 461 36,000  Descending FlightAware ADS-B
Tue 07:03:47 PM -32.1728 139.6906 200° South 402 463 36,300  Climbing Aus ATC (RADAR)
Tue 07:04:02 PM -32.1950 139.6820 200° South 402 463 36,000  Descending FlightAware ADS-B
Tue 07:04:17 PM -32.2250 139.6681 200° South 401 461 36,300  Climbing Aus ATC (RADAR)
Tue 07:04:47 PM -32.2740 139.6450 200° South 402 463 36,000 -257 Descending FlightAware ADS-B
Tue 07:05:27 PM -32.3440 139.6120 202° Southwest 403 464 36,000 327 Level FlightAware ADS-B
Tue 07:05:42 PM -32.3716 139.5970 202° Southwest 403 464 36,300  Climbing Aus ATC (RADAR)
Tue 07:06:12 PM -32.4220 139.5750 202° Southwest 396 456 36,000 -257 Descending FlightAware ADS-B
Tue 07:06:52 PM -32.4900 139.5430 202° Southwest 397 457 36,000 240 Level FlightAware ADS-B
Tue 07:07:27 PM -32.5545 139.5128 202° Southwest 405 466 36,300  Climbing Aus ATC (RADAR)
Tue 07:07:32 PM -32.5610 139.5100 202° Southwest 399 459 36,000 -360 Descending FlightAware ADS-B
Tue 07:08:17 PM -32.6390 139.4730 202° Southwest 398 458 36,000 243 Level FlightAware ADS-B
Tue 07:08:46 PM -32.6934 139.4465 202° Southwest 407 468 36,300  Climbing Aus ATC (RADAR)
Tue 07:08:57 PM -32.7080 139.4400 202° Southwest 397 457 36,000 -353 Descending FlightAware ADS-B
Tue 07:09:37 PM -32.7780 139.4070 202° Southwest 396 456 36,000  Level FlightAware ADS-B
Tue 07:10:22 PM -32.8570 139.3700 201° Southwest 403 464 36,000  Level FlightAware ADS-B
Tue 07:11:02 PM -32.9260 139.3370 202° Southwest 403 464 36,000  Level FlightAware ADS-B
Tue 07:11:47 PM -33.0040 139.2990 202° Southwest 403 464 36,000  Level FlightAware ADS-B
Tue 07:12:27 PM -33.0720 139.2660 202° Southwest 397 457 36,000  Level FlightAware ADS-B
Tue 07:13:12 PM -33.1520 139.2290 201° Southwest 398 458 36,000 243 Level FlightAware ADS-B
Tue 07:13:41 PM -33.2053 139.2020 201° Southwest 408 470 36,300  Climbing Aus ATC (RADAR)
Tue 07:13:52 PM -33.2210 139.1960 201° Southwest 399 459 36,000  Descending FlightAware ADS-B
Tue 07:14:11 PM -33.2575 139.1777 201° Southwest 405 466 36,300  Climbing Aus ATC (RADAR)
Tue 07:14:32 PM -33.2900 139.1630 201° Southwest 398 458 36,000 -273 Descending FlightAware ADS-B
Tue 07:15:17 PM -33.3700 139.1240 202° Southwest 398 458 36,000 -929 Level FlightAware ADS-B
Tue 07:15:56 PM -33.4400 139.0897 202° Southwest 406 467 34,700 -2,400 Descending Aus ATC (RADAR)
Tue 07:15:57 PM -33.4390 139.0900 202° Southwest 401 461 34,400 -3,353 Descending FlightAware ADS-B
Tue 07:16:30 PM -33.5021 139.0590 202° Southwest 415 478 32,800 -3,200 Descending Aus ATC (RADAR)
Tue 07:16:42 PM -33.5200 139.0510 202° Southwest 420 483 32,000 -3,000 Descending FlightAware ADS-B
Tue 07:17:16 PM -33.5838 139.0204 202° Southwest 423 487 30,500 -2,850 Descending Aus ATC (RADAR)
Tue 07:17:22 PM -33.5930 139.0160 202° Southwest 419 482 30,100 -2,000 Descending FlightAware ADS-B
Tue 07:17:40 PM -33.6286 138.9980 202° Southwest 420 483 29,700 -2,250 Descending Aus ATC (RADAR)
Tue 07:18:02 PM -33.6640 138.9820 202° Southwest 413 475 28,600 -2,328 Descending FlightAware ADS-B
Tue 07:18:47 PM -33.7410 138.9440 202° Southwest 398 458 27,100 -2,000 Descending FlightAware ADS-B
Tue 07:19:05 PM -33.7760 138.9269 202° Southwest 400 460 26,500 -2,400 Descending Aus ATC (RADAR)
Tue 07:19:27 PM -33.8100 138.9110 202° Southwest 384 442 25,500 -2,164 Descending FlightAware ADS-B
Tue 07:20:06 PM -33.8762 138.8784 202° Southwest 388 447 24,300 -2,133 Descending Aus ATC (RADAR)
Tue 07:20:12 PM -33.8830 138.8750 202° Southwest 380 437 23,900 -1,941 Descending FlightAware ADS-B
Tue 07:20:40 PM -33.9324 138.8507 202° Southwest 376 433 23,200 -1,950 Descending Aus ATC (RADAR)
Tue 07:20:52 PM -33.9470 138.8430 202° Southwest 362 417 22,600 -2,250 Descending FlightAware ADS-B
Tue 07:21:20 PM -33.9952 138.8192 202° Southwest 368 423 21,700 -2,400 Descending Aus ATC (RADAR)
Tue 07:21:32 PM -34.0100 138.8130 202° Southwest 363 418 21,000 -2,280 Descending FlightAware ADS-B
Tue 07:22:10 PM -34.0727 138.7819 202° Southwest 360 414 19,800 -2,267 Descending Aus ATC (RADAR)
Tue 07:22:17 PM -34.0810 138.7780 202° Southwest 352 405 19,300 -2,170 Descending FlightAware ADS-B
Tue 07:22:57 PM -34.1420 138.7480 202° Southwest 345 397 18,100 -2,118 Descending FlightAware ADS-B
Tue 07:23:42 PM -34.2080 138.7180 201° Southwest 347 399 16,300 -2,329 Descending FlightAware ADS-B
Tue 07:24:22 PM -34.2720 138.7020 192° South 343 395 14,800 -2,250 Descending FlightAware ADS-B
Tue 07:25:02 PM -34.3330 138.6840 194° South 341 392 13,300 -2,239 Descending FlightAware ADS-B
Tue 07:25:29 PM -34.3753 138.6618 194° South 340 391 12,300 -2,133 Descending Aus ATC (RADAR)
Tue 07:25:47 PM -34.3980 138.6500 194° South 336 387 11,700 -1,600 Descending FlightAware ADS-B
Tue 07:26:14 PM -34.4393 138.6285 194° South 333 383 11,100 -1,650 Descending Aus ATC (RADAR)
Tue 07:26:27 PM -34.4540 138.6210 194° South 317 365 10,600 -1,050 Descending FlightAware ADS-B
Tue 07:26:54 PM -34.4933 138.6002 194° South 317 365 10,400 -900 Descending Aus ATC (RADAR)
Tue 07:27:07 PM -34.5070 138.5930 194° South 297 342 10,000 -1,000 Descending FlightAware ADS-B
Tue 07:27:24 PM -34.5306 138.5804 194° South 298 343 9,900 -1,400 Descending Aus ATC (RADAR)
Tue 07:27:37 PM -34.5430 138.5740 194° South 284 327 9,300 -2,093 Descending FlightAware ADS-B
Tue 07:28:07 PM -34.5810 138.5540 203° Southwest 284 327 8,400 -1,745 Descending FlightAware ADS-B
Tue 07:28:32 PM -34.6110 138.5380 204° Southwest 282 325 7,700 -1,527 Descending FlightAware ADS-B
Tue 07:29:02 PM -34.6460 138.5200 203° Southwest 279 321 7,000 -1,527 Descending FlightAware ADS-B
Tue 07:29:27 PM -34.6780 138.5030 204° Southwest 285 328 6,300 -1,527 Descending FlightAware ADS-B
Tue 07:29:57 PM -34.7150 138.4830 204° Southwest 281 323 5,600 -1,527 Descending FlightAware ADS-B
Tue 07:30:22 PM -34.7450 138.4670 204° Southwest 280 322 4,900 -1,429 Descending FlightAware ADS-B
Tue 07:30:39 PM -34.7679 138.4552 204° Southwest 283 326 4,600 -1,200 Descending Aus ATC (RADAR)
Tue 07:30:52 PM -34.7810 138.4480 204° Southwest 266 306 4,300 -1,071 Descending FlightAware ADS-B
Tue 07:31:07 PM -34.7980 138.4390 203° Southwest 266 306 4,100 -375 Descending FlightAware ADS-B
Tue 07:31:24 PM -34.8191 138.4284 203° Southwest 266 306 4,100 -720 Level Aus ATC (RADAR)
Tue 07:31:32 PM -34.8250 138.4250 203° Southwest 244 281 3,800 -474 Descending FlightAware ADS-B
Tue 07:32:02 PM -34.8560 138.4090 203° Southwest 230 265 3,800 -400 Level FlightAware ADS-B
Tue 07:32:32 PM -34.8870 138.3920 204° Southwest 231 266 3,400 -652 Descending FlightAware ADS-B
Tue 07:32:48 PM -34.9057 138.3823 204° Southwest 240 276 3,300 -1,200 Descending Aus ATC (RADAR)
Tue 07:32:57 PM -34.9120 138.3790 204° Southwest 231 266 2,900 -800 Descending FlightAware ADS-B
Tue 07:33:18 PM -34.9357 138.3669 204° Southwest 235 270 2,900 -600 Level Aus ATC (RADAR)
Tue 07:33:27 PM -34.9420 138.3670 204° Southwest 227 261 2,600 -769 Descending FlightAware ADS-B
Tue 07:33:57 PM -34.9650 138.3860 146° Southeast 203 234 2,400 -545 Descending FlightAware ADS-B
Tue 07:34:22 PM -34.9820 138.4060 136° Southeast 201 231 2,100 -873 Descending FlightAware ADS-B
Tue 07:34:52 PM -35.0020 138.4300 135° Southeast 191 220 1,600 -1,050 Descending FlightAware ADS-B
Tue 07:35:02 PM -35.0060 138.4390 118° Southeast 177 204 1,400 -333 Descending FlightAware ADS-B
Tue 07:35:28 PM -34.9996 138.4598 118° Southeast 146 168 1,400 -400 Level Aus ATC (RADAR)
Tue 07:35:32 PM -34.9990 138.4600 118° Southeast 130 150 1,200 -1,059 Descending FlightAware ADS-B
Tue 07:36:02 PM -34.9880 138.4760 50° Northeast 125 144 800 -652 Descending FlightAware ADS-B
Tue 07:36:18 PM -34.9803 138.4857 50° Northeast 124 143 700 -960 Descending Aus ATC (RADAR)
Tue 07:36:27 PM -34.9780 138.4890 50° Northeast 116 133 400 -514 Descending FlightAware ADS-B
Tue 07:36:53 PM -34.9676 138.5042 50° Northeast 123 142 400 -600 Level Aus ATC (RADAR)
Tue 07:36:57 PM -34.9670 138.5040 50° Northeast 124 143 100 -4,500 Descending FlightAware ADS-B
Tue 07:37:27 PM -34.9570 138.5190 51° Northeast 125 144 -200 Descending FlightAware ADS-B
Tue 07:37:52 PM -34.9490 138.5310 51° Northeast 78 90  Level FlightAware ADS-B
Tue 07:38:17 PM -34.9460 138.5350 48° Northeast 10 12  Level FlightAware ADS-B
Tue 07:39:02 PM -34.9440 138.5350 360° North 11 13  Level FlightAware ADS-B
Tue 07:39:32 PM -34.9430 138.5360 39° Northeast 15 17  Level FlightAware ADS-B
Tue 07:40:12 PM -34.9410 138.5390 51° Northeast 11 13  Level FlightAware ADS-B
Tue 07:40:37 PM -34.9410 138.5380 270° West 11 13  Level FlightAware ADS-B
Tue 07:41:22 PM -34.9410 138.5370 270° West 3 3  Level FlightAware ADS-B
Tue 07:41:52 PM -34.9400 138.5360 321° Northwest 1 1  Level FlightAware ADS-B

Login

Don't have an account? Register now (free) for customized features, flight alerts, and more!